createdAt,value
2023-09-06T00:00:17.735Z,75.35
2023-09-06T00:03:07.419Z,75.60
2023-09-06T00:05:37.416Z,75.48
2023-09-06T00:08:08.840Z,75.50
2023-09-06T00:10:39.077Z,75.76
2023-09-06T00:13:08.127Z,76.21
2023-09-06T00:15:37.126Z,76.22
2023-09-06T00:18:07.560Z,76.00
2023-09-06T00:20:37.148Z,75.83
2023-09-06T00:23:06.974Z,76.01
2023-09-06T00:25:35.542Z,76.01
2023-09-06T00:28:06.046Z,75.81
2023-09-06T00:30:35.031Z,75.96
2023-09-06T00:33:06.345Z,76.16
2023-09-06T00:35:35.291Z,75.77
2023-09-06T00:38:06.893Z,75.93
2023-09-06T00:40:36.900Z,76.07
2023-09-06T00:43:06.952Z,76.10
2023-09-06T00:45:40.164Z,76.08
2023-09-06T00:48:09.266Z,75.96
2023-09-06T00:50:37.995Z,76.03
2023-09-06T00:53:07.601Z,76.01
2023-09-06T00:55:37.805Z,76.11
2023-09-06T00:58:07.043Z,76.07
2023-09-06T01:00:36.263Z,76.11
2023-09-06T01:03:06.623Z,76.48
2023-09-06T01:05:40.824Z,76.37
2023-09-06T01:08:12.976Z,76.32
2023-09-06T01:10:41.574Z,76.37
2023-09-06T01:13:10.259Z,76.25
2023-09-06T01:15:44.158Z,76.22
2023-09-06T01:18:13.732Z,76.51
2023-09-06T01:20:45.843Z,76.41
2023-09-06T01:23:26.196Z,76.37
2023-09-06T01:25:55.081Z,76.36
2023-09-06T01:28:28.007Z,76.54
2023-09-06T01:30:56.749Z,76.73
2023-09-06T01:33:25.429Z,76.86
2023-09-06T01:35:53.681Z,77.01
2023-09-06T01:38:22.450Z,76.88
2023-09-06T01:40:51.043Z,76.77
2023-09-06T01:43:19.485Z,77.30
2023-09-06T01:45:52.264Z,77.22
2023-09-06T01:48:21.075Z,77.41
2023-09-06T01:50:49.896Z,77.38
2023-09-06T01:53:18.154Z,77.39
2023-09-06T01:55:46.389Z,77.38
2023-09-06T01:58:14.762Z,77.53
2023-09-06T02:00:44.580Z,77.76
2023-09-06T02:03:16.347Z,77.33
2023-09-06T02:05:45.211Z,77.59
2023-09-06T02:08:13.684Z,77.41
2023-09-06T02:10:43.105Z,77.39
2023-09-06T02:13:11.575Z,77.09
2023-09-06T02:15:40.125Z,77.21
2023-09-06T02:18:08.486Z,77.27
2023-09-06T02:20:36.730Z,76.94
2023-09-06T02:23:04.383Z,76.97
2023-09-06T02:25:34.036Z,77.07
2023-09-06T02:28:05.702Z,77.25
2023-09-06T02:30:38.059Z,76.86
2023-09-06T02:33:08.149Z,76.97
2023-09-06T02:35:36.444Z,76.90
2023-09-06T02:38:05.202Z,76.74
2023-09-06T02:40:33.796Z,76.93
2023-09-06T02:43:02.628Z,77.08
2023-09-06T02:45:37.282Z,77.16
2023-09-06T02:48:07.626Z,77.27
2023-09-06T02:50:36.666Z,77.56
2023-09-06T02:53:14.487Z,77.47
2023-09-06T02:55:43.113Z,77.47
2023-09-06T02:58:11.484Z,77.41
2023-09-06T03:00:40.801Z,77.73
2023-09-06T03:03:09.407Z,77.68
2023-09-06T03:05:41.845Z,77.41
2023-09-06T03:08:12.644Z,77.83
2023-09-06T03:10:41.701Z,77.40
2023-09-06T03:13:10.041Z,77.28
2023-09-06T03:15:43.931Z,77.68
2023-09-06T03:18:12.995Z,77.77
2023-09-06T03:21:09.272Z,77.70
2023-09-06T03:23:39.234Z,77.49
2023-09-06T03:26:10.543Z,77.41
2023-09-06T03:28:41.537Z,78.03
2023-09-06T03:31:13.705Z,77.61
2023-09-06T03:33:42.043Z,77.61
2023-09-06T03:36:10.057Z,77.57
2023-09-06T03:38:38.599Z,77.52
2023-09-06T03:41:07.810Z,77.93
2023-09-06T03:43:37.678Z,77.55
2023-09-06T03:46:10.322Z,77.81
2023-09-06T03:48:38.674Z,77.79
2023-09-06T03:51:07.919Z,77.56
2023-09-06T03:53:37.697Z,77.69
2023-09-06T03:56:06.157Z,77.59
2023-09-06T03:58:41.922Z,77.69
2023-09-06T04:01:11.535Z,77.78
2023-09-06T04:03:41.103Z,77.85
2023-09-06T04:06:11.417Z,77.74
2023-09-06T04:08:40.413Z,77.79
2023-09-06T04:11:10.798Z,77.99
2023-09-06T04:13:41.301Z,78.27
2023-09-06T04:16:10.019Z,78.03
2023-09-06T04:18:42.232Z,78.36
2023-09-06T04:21:10.775Z,78.29
2023-09-06T04:23:41.662Z,78.06
2023-09-06T04:26:11.249Z,78.03
2023-09-06T04:28:39.705Z,77.93
2023-09-06T04:31:10.033Z,77.90
2023-09-06T04:33:40.782Z,77.95
2023-09-06T04:36:23.367Z,78.06
2023-09-06T04:38:56.775Z,78.18
2023-09-06T04:41:26.240Z,78.24
2023-09-06T04:43:58.190Z,78.47
2023-09-06T04:46:26.853Z,79.14
2023-09-06T04:48:55.698Z,78.82
2023-09-06T04:51:24.290Z,78.90
2023-09-06T04:53:54.398Z,78.94
2023-09-06T04:56:27.537Z,79.03
2023-09-06T04:58:56.475Z,78.83
2023-09-06T05:01:24.911Z,79.05
2023-09-06T05:03:53.564Z,78.82
2023-09-06T05:06:22.747Z,78.77
2023-09-06T05:08:50.973Z,78.73
2023-09-06T05:11:22.318Z,78.92
2023-09-06T05:13:53.501Z,78.73
2023-09-06T05:16:22.896Z,78.86
2023-09-06T05:18:51.224Z,78.99
2023-09-06T05:21:22.535Z,78.84
2023-09-06T05:23:50.698Z,78.84
2023-09-06T05:26:19.042Z,79.29
2023-09-06T05:28:49.317Z,79.23
2023-09-06T05:31:19.351Z,78.98
2023-09-06T05:33:48.209Z,79.03
2023-09-06T05:36:17.883Z,78.93
2023-09-06T05:38:46.184Z,78.94
2023-09-06T05:41:16.114Z,78.89
2023-09-06T05:43:45.579Z,78.83
2023-09-06T05:48:48.036Z,78.94
2023-09-06T05:51:16.621Z,78.86
2023-09-06T05:53:45.291Z,78.72
2023-09-06T05:56:13.700Z,78.54
2023-09-06T05:58:43.057Z,78.67
2023-09-06T06:01:12.939Z,78.48
2023-09-06T06:03:41.573Z,78.40
2023-09-06T06:06:14.503Z,78.23
2023-09-06T06:08:42.924Z,78.07
2023-09-06T06:11:12.116Z,78.09
2023-09-06T06:13:40.363Z,78.06
2023-09-06T06:16:09.059Z,77.78
2023-09-06T06:18:37.331Z,77.65
2023-09-06T06:21:05.593Z,77.46
2023-09-06T06:23:34.066Z,77.67
2023-09-06T06:26:02.382Z,77.26
2023-09-06T06:28:30.956Z,76.94
2023-09-06T06:30:59.614Z,77.23
2023-09-06T06:33:27.828Z,77.24
2023-09-06T06:35:56.154Z,76.38
2023-09-06T06:38:24.530Z,75.57
2023-09-06T06:40:52.877Z,75.07
2023-09-06T06:43:21.457Z,74.13
2023-09-06T06:45:55.427Z,73.51
2023-09-06T06:48:23.195Z,72.53
2023-09-06T06:50:51.397Z,72.22
2023-09-06T06:53:19.708Z,72.21
2023-09-06T06:55:48.346Z,71.55
2023-09-06T06:58:16.668Z,70.48
2023-09-06T07:00:44.880Z,70.00
2023-09-06T07:03:13.223Z,69.14
2023-09-06T07:05:41.717Z,67.77
2023-09-06T07:08:10.834Z,66.11
2023-09-06T07:10:39.189Z,65.68
2023-09-06T07:13:07.475Z,63.96
2023-09-06T07:15:36.050Z,63.06
2023-09-06T07:18:07.467Z,62.75
2023-09-06T07:20:36.071Z,61.85
2023-09-06T07:23:04.716Z,61.23
2023-09-06T07:25:39.904Z,61.56
2023-09-06T07:28:08.116Z,60.00
2023-09-06T07:30:36.560Z,58.33
2023-09-06T07:33:05.863Z,58.19
2023-09-06T07:35:34.734Z,57.28
2023-09-06T07:38:03.045Z,56.10
2023-09-06T07:40:31.443Z,55.60
2023-09-06T07:42:59.690Z,53.83
2023-09-06T07:45:28.067Z,53.67
2023-09-06T07:47:56.464Z,52.29
2023-09-06T07:50:24.741Z,53.08
2023-09-06T07:52:53.033Z,53.14
2023-09-06T07:55:22.461Z,52.92
2023-09-06T07:57:50.582Z,52.59
2023-09-06T08:00:19.912Z,51.81
2023-09-06T08:02:48.079Z,52.72
2023-09-06T08:05:17.382Z,53.77
2023-09-06T08:07:45.653Z,51.50
2023-09-06T08:10:14.108Z,51.34
2023-09-06T08:12:42.233Z,51.48
2023-09-06T08:15:10.699Z,51.07
2023-09-06T08:17:39.168Z,51.54
2023-09-06T08:20:09.732Z,50.40
2023-09-06T08:22:44.790Z,49.84
2023-09-06T08:25:13.891Z,50.58
2023-09-06T08:27:42.870Z,50.13
2023-09-06T08:30:12.738Z,49.81
2023-09-06T08:32:42.357Z,50.49
2023-09-06T08:35:12.436Z,48.60
2023-09-06T08:37:40.885Z,49.31
2023-09-06T08:40:11.044Z,50.50
2023-09-06T08:42:39.918Z,49.98
2023-09-06T08:45:09.803Z,50.86
2023-09-06T08:47:39.901Z,50.90
2023-09-06T08:50:10.703Z,51.51
2023-09-06T08:52:41.539Z,50.79
2023-09-06T08:55:11.449Z,51.15
2023-09-06T08:57:40.227Z,51.25
2023-09-06T09:00:11.735Z,51.32
2023-09-06T09:02:40.904Z,50.90
2023-09-06T09:05:20.298Z,51.68
2023-09-06T09:07:54.268Z,51.48
2023-09-06T09:10:26.188Z,49.66
2023-09-06T09:12:56.850Z,49.62
2023-09-06T09:15:26.386Z,50.43
2023-09-06T09:18:01.053Z,50.26
2023-09-06T09:20:32.572Z,50.45
2023-09-06T09:23:02.010Z,49.52
2023-09-06T09:25:30.495Z,49.58
2023-09-06T09:27:59.986Z,47.91
2023-09-06T09:30:30.839Z,48.94
2023-09-06T09:33:00.549Z,48.29
2023-09-06T09:35:29.454Z,47.03
2023-09-06T09:37:58.017Z,45.61
2023-09-06T09:40:46.105Z,45.70
2023-09-06T09:43:24.234Z,45.67
2023-09-06T09:45:52.763Z,45.65
2023-09-06T09:48:23.613Z,45.65
2023-09-06T09:50:52.901Z,45.28
2023-09-06T09:53:23.744Z,44.59
2023-09-06T09:55:54.468Z,45.55
2023-09-06T09:58:23.308Z,44.04
2023-09-06T10:00:52.518Z,44.17
2023-09-06T10:03:23.700Z,45.99
2023-09-06T10:05:52.752Z,44.74
2023-09-06T10:08:21.466Z,45.80
2023-09-06T10:10:51.578Z,43.56
2023-09-06T10:13:19.949Z,44.00
2023-09-06T10:15:48.527Z,43.43
2023-09-06T10:18:17.091Z,42.54
2023-09-06T10:20:46.494Z,42.59
2023-09-06T10:23:15.500Z,43.06
2023-09-06T10:25:50.137Z,43.31
2023-09-06T10:28:21.145Z,43.29
2023-09-06T10:30:55.591Z,43.20
2023-09-06T10:33:57.426Z,43.01
2023-09-06T10:36:28.305Z,42.70
2023-09-06T10:39:15.923Z,41.36
2023-09-06T10:42:28.777Z,42.67
2023-09-06T10:45:14.146Z,41.75
2023-09-06T10:47:43.143Z,41.68
2023-09-06T10:50:20.672Z,41.07
2023-09-06T10:52:51.308Z,41.22
2023-09-06T10:55:22.146Z,42.74
2023-09-06T10:57:52.984Z,43.06
2023-09-06T11:00:22.513Z,42.20
2023-09-06T11:03:17.256Z,41.36
2023-09-06T11:05:51.414Z,41.30
2023-09-06T11:08:30.874Z,41.18
2023-09-06T11:11:08.077Z,41.82
2023-09-06T11:13:37.480Z,40.46
2023-09-06T11:16:10.238Z,41.27
2023-09-06T11:18:45.959Z,40.68
2023-09-06T11:21:18.251Z,39.75
2023-09-06T11:23:47.577Z,39.57
2023-09-06T11:26:16.133Z,39.50
2023-09-06T11:28:45.066Z,39.53
2023-09-06T11:31:25.742Z,38.54
2023-09-06T11:33:56.584Z,38.40
2023-09-06T11:36:29.812Z,39.16
2023-09-06T11:38:58.429Z,39.84
2023-09-06T11:41:26.982Z,38.91
2023-09-06T11:43:58.803Z,39.52
2023-09-06T11:46:27.841Z,40.12
2023-09-06T11:48:56.061Z,40.54
2023-09-06T11:51:25.850Z,40.90
2023-09-06T11:54:00.929Z,40.27
2023-09-06T11:56:32.061Z,39.71
2023-09-06T11:59:00.838Z,40.66
2023-09-06T12:01:29.930Z,40.43
2023-09-06T12:04:01.840Z,40.24
2023-09-06T12:06:31.102Z,39.62
2023-09-06T12:09:00.078Z,40.60
2023-09-06T12:11:28.609Z,39.76
2023-09-06T12:13:57.774Z,39.94
2023-09-06T12:16:25.995Z,40.67
2023-09-06T12:18:55.255Z,39.79
2023-09-06T12:21:23.643Z,40.13
2023-09-06T12:23:52.067Z,39.72
2023-09-06T12:26:21.274Z,39.38
2023-09-06T12:28:50.533Z,40.59
2023-09-06T12:31:19.162Z,41.74
2023-09-06T12:33:49.343Z,40.63
2023-09-06T12:36:19.023Z,39.80
2023-09-06T12:38:48.058Z,39.53
2023-09-06T12:41:16.302Z,40.57
2023-09-06T12:43:44.530Z,40.14
2023-09-06T12:46:12.850Z,40.45
2023-09-06T12:48:42.786Z,39.49
2023-09-06T12:51:11.144Z,39.50
2023-09-06T12:53:39.413Z,39.01
2023-09-06T12:56:12.062Z,39.99
2023-09-06T12:58:41.903Z,39.39
2023-09-06T13:01:11.131Z,39.81
2023-09-06T13:03:40.014Z,38.91
2023-09-06T13:06:09.030Z,39.08
2023-09-06T13:08:37.768Z,38.67
2023-09-06T13:11:07.031Z,40.03
2023-09-06T13:13:36.206Z,40.26
2023-09-06T13:16:06.656Z,40.11
2023-09-06T13:18:35.275Z,38.83
2023-09-06T13:21:05.995Z,38.88
2023-09-06T13:23:34.486Z,39.74
2023-09-06T13:26:03.092Z,39.84
2023-09-06T13:28:31.470Z,40.03
2023-09-06T13:31:00.070Z,40.08
2023-09-06T13:33:29.767Z,39.91
2023-09-06T13:35:58.445Z,39.10
2023-09-06T13:38:27.400Z,39.06
2023-09-06T13:40:55.607Z,38.63
2023-09-06T13:43:23.856Z,38.81
2023-09-06T13:45:52.220Z,38.55
2023-09-06T13:48:20.565Z,39.15
2023-09-06T13:50:48.910Z,39.26
2023-09-06T13:53:17.172Z,38.87
2023-09-06T13:55:45.267Z,39.40
2023-09-06T13:58:14.339Z,38.94
2023-09-06T14:00:43.226Z,38.76
2023-09-06T14:03:11.929Z,39.38
2023-09-06T14:05:40.419Z,39.66
2023-09-06T14:08:08.961Z,38.95
2023-09-06T14:10:37.449Z,39.37
2023-09-06T14:13:05.674Z,39.92
2023-09-06T14:15:35.462Z,40.48
2023-09-06T14:18:04.692Z,40.29
2023-09-06T14:20:35.128Z,40.68
2023-09-06T14:23:03.736Z,39.37
2023-09-06T14:25:32.359Z,39.64
2023-09-06T14:28:01.414Z,40.25
2023-09-06T14:30:30.293Z,40.06
2023-09-06T14:33:00.465Z,40.75
2023-09-06T14:35:29.080Z,39.81
2023-09-06T14:37:58.404Z,39.91
2023-09-06T14:40:26.871Z,40.10
2023-09-06T14:42:55.732Z,40.33
2023-09-06T14:45:26.744Z,40.28
2023-09-06T14:47:56.929Z,40.89
2023-09-06T14:50:25.353Z,40.86
2023-09-06T14:52:53.855Z,40.77
2023-09-06T14:55:22.461Z,40.68
2023-09-06T14:57:50.645Z,40.51
2023-09-06T15:00:19.505Z,40.81
2023-09-06T15:02:47.922Z,40.63
2023-09-06T15:05:16.888Z,40.70
2023-09-06T15:07:45.063Z,40.58
2023-09-06T15:10:14.816Z,39.93
2023-09-06T15:12:44.268Z,40.74
2023-09-06T15:15:15.007Z,41.02
2023-09-06T15:17:43.320Z,40.74
2023-09-06T15:20:13.339Z,41.18
2023-09-06T15:22:41.837Z,41.82
2023-09-06T15:25:11.469Z,41.39
2023-09-06T15:27:40.811Z,41.64
2023-09-06T15:30:10.086Z,41.90
2023-09-06T15:32:38.274Z,41.75
2023-09-06T15:35:08.763Z,41.82
2023-09-06T15:37:37.617Z,42.00
2023-09-06T15:40:09.096Z,42.05
2023-09-06T15:42:37.529Z,42.59
2023-09-06T15:45:08.922Z,42.32
2023-09-06T15:47:38.720Z,42.95
2023-09-06T15:50:10.955Z,43.31
2023-09-06T15:52:39.137Z,43.17
2023-09-06T15:55:09.616Z,43.94
2023-09-06T15:57:38.660Z,44.06
2023-09-06T16:00:24.443Z,44.86
2023-09-06T16:02:58.518Z,45.66
2023-09-06T16:05:27.208Z,45.72
2023-09-06T16:07:56.164Z,46.47
2023-09-06T16:10:25.169Z,46.74
2023-09-06T16:12:53.728Z,47.38
2023-09-06T16:15:23.263Z,48.16
2023-09-06T16:17:51.834Z,48.01
2023-09-06T16:20:20.247Z,48.49
2023-09-06T16:22:48.594Z,49.33
2023-09-06T16:25:17.110Z,49.52
2023-09-06T16:27:46.212Z,49.91
2023-09-06T16:30:15.170Z,50.19
2023-09-06T16:32:43.803Z,51.02
2023-09-06T16:35:12.080Z,51.72
2023-09-06T16:37:42.113Z,52.04
2023-09-06T16:40:11.059Z,52.73
2023-09-06T16:42:40.236Z,53.34
2023-09-06T16:45:10.740Z,53.71
2023-09-06T16:47:39.411Z,54.14
2023-09-06T16:50:09.755Z,54.18
2023-09-06T16:52:38.193Z,54.70
2023-09-06T16:55:10.468Z,54.96
2023-09-06T16:57:39.232Z,55.48
2023-09-06T17:00:10.203Z,55.41
2023-09-06T17:02:38.495Z,56.13
2023-09-06T17:05:08.925Z,56.35
2023-09-06T17:07:38.238Z,56.10
2023-09-06T17:10:08.273Z,56.58
2023-09-06T17:12:37.308Z,56.84
2023-09-06T17:15:14.078Z,56.92
2023-09-06T17:17:43.309Z,57.41
2023-09-06T17:20:13.079Z,57.87
2023-09-06T17:22:43.316Z,58.11
2023-09-06T17:25:11.523Z,58.51
2023-09-06T17:27:42.286Z,58.69
2023-09-06T17:30:18.869Z,59.06
2023-09-06T17:33:11.539Z,59.21
2023-09-06T17:35:40.628Z,59.61
2023-09-06T17:38:11.743Z,59.69
2023-09-06T17:40:41.732Z,59.93
2023-09-06T17:43:10.510Z,60.03
2023-09-06T17:45:39.456Z,60.21
2023-09-06T17:48:11.634Z,60.16
2023-09-06T17:50:41.899Z,60.63
2023-09-06T17:53:13.442Z,60.74
2023-09-06T17:55:42.528Z,61.18
2023-09-06T17:58:12.351Z,61.24
2023-09-06T18:00:42.612Z,61.55
2023-09-06T18:03:14.974Z,61.70
2023-09-06T18:05:45.565Z,61.89
2023-09-06T18:08:16.306Z,61.96
2023-09-06T18:10:45.125Z,62.39
2023-09-06T18:13:14.528Z,62.58
2023-09-06T18:15:43.020Z,62.61
2023-09-06T18:18:13.950Z,62.59
2023-09-06T18:20:45.245Z,62.92
2023-09-06T18:23:14.092Z,63.18
2023-09-06T18:25:42.519Z,62.97
2023-09-06T18:28:10.798Z,63.34
2023-09-06T18:30:44.332Z,63.57
2023-09-06T18:33:14.241Z,63.80
2023-09-06T18:35:45.799Z,63.99
2023-09-06T18:38:15.175Z,64.11
2023-09-06T18:40:43.540Z,64.23
2023-09-06T18:43:12.388Z,64.43
2023-09-06T18:45:41.265Z,64.68
2023-09-06T18:48:14.796Z,64.78
2023-09-06T18:50:43.338Z,64.97
2023-09-06T18:53:11.894Z,65.00
2023-09-06T18:55:43.389Z,65.18
2023-09-06T18:58:12.037Z,65.37
2023-09-06T19:00:41.538Z,65.42
2023-09-06T19:03:13.375Z,65.54
2023-09-06T19:05:43.212Z,65.58
2023-09-06T19:08:14.671Z,65.84
2023-09-06T19:10:43.435Z,65.87
2023-09-06T19:13:14.970Z,65.86
2023-09-06T19:15:47.731Z,65.99
2023-09-06T19:18:16.276Z,66.03
2023-09-06T19:20:44.921Z,66.23
2023-09-06T19:23:17.126Z,66.40
2023-09-06T19:25:51.992Z,66.56
2023-09-06T19:28:21.253Z,66.78
2023-09-06T19:30:54.894Z,66.78
2023-09-06T19:33:23.305Z,67.15
2023-09-06T19:35:51.752Z,67.14
2023-09-06T19:38:21.804Z,67.16
2023-09-06T19:40:51.131Z,67.21
2023-09-06T19:43:19.760Z,67.18
2023-09-06T19:45:53.665Z,67.32
2023-09-06T19:48:22.072Z,67.52
2023-09-06T19:50:50.559Z,67.83
2023-09-06T19:53:19.447Z,67.93
2023-09-06T19:55:48.731Z,68.21
2023-09-06T19:58:18.398Z,68.14
2023-09-06T20:00:46.763Z,68.29
2023-09-06T20:03:15.644Z,68.41
2023-09-06T20:05:44.436Z,68.58
2023-09-06T20:08:12.901Z,68.87
2023-09-06T20:10:47.190Z,69.06
2023-09-06T20:13:15.544Z,69.07
2023-09-06T20:15:44.699Z,69.18
2023-09-06T20:18:13.042Z,69.31
2023-09-06T20:20:41.756Z,69.45
2023-09-06T20:23:10.462Z,69.58
2023-09-06T20:25:38.927Z,69.67
2023-09-06T20:28:07.885Z,69.66
2023-09-06T20:30:39.656Z,69.56
2023-09-06T20:33:09.282Z,69.64
2023-09-06T20:35:43.372Z,69.70
2023-09-06T20:38:12.259Z,69.85
2023-09-06T20:40:40.694Z,69.89
2023-09-06T20:43:09.129Z,69.96
2023-09-06T20:45:37.551Z,69.98
2023-09-06T20:48:09.153Z,70.18
2023-09-06T20:50:37.470Z,70.17
2023-09-06T20:53:06.231Z,70.44
2023-09-06T20:55:34.714Z,70.47
2023-09-06T20:58:03.489Z,70.57
2023-09-06T21:00:31.856Z,70.58
2023-09-06T21:03:01.401Z,70.88
2023-09-06T21:05:30.838Z,70.87
2023-09-06T21:07:59.235Z,71.12
2023-09-06T21:10:28.488Z,71.06
2023-09-06T21:12:56.941Z,71.12
2023-09-06T21:15:25.298Z,71.18
2023-09-06T21:17:53.510Z,71.42
2023-09-06T21:20:23.133Z,71.43
2023-09-06T21:22:51.334Z,71.32
2023-09-06T21:25:19.521Z,71.61
2023-09-06T21:27:47.868Z,71.57
2023-09-06T21:30:16.069Z,71.48
2023-09-06T21:32:44.456Z,71.64
2023-09-06T21:35:12.698Z,71.69
2023-09-06T21:37:41.055Z,71.87
2023-09-06T21:40:10.459Z,71.98
2023-09-06T21:42:38.771Z,71.96
2023-09-06T21:45:09.755Z,72.22
2023-09-06T21:47:38.323Z,72.44
2023-09-06T21:50:09.132Z,72.59
2023-09-06T21:52:37.638Z,72.72
2023-09-06T21:55:07.752Z,72.66
2023-09-06T21:57:36.224Z,72.71
2023-09-06T22:00:10.880Z,72.73
2023-09-06T22:02:57.882Z,72.81
2023-09-06T22:05:44.634Z,72.79
2023-09-06T22:08:32.594Z,72.92
2023-09-06T22:11:19.627Z,73.15
2023-09-06T22:14:06.333Z,73.08
2023-09-06T22:16:35.609Z,73.21
2023-09-06T22:19:04.356Z,73.13
2023-09-06T22:21:32.626Z,73.25
2023-09-06T22:24:00.874Z,73.53
2023-09-06T22:26:29.292Z,73.49
2023-09-06T22:28:58.445Z,73.58
2023-09-06T22:31:29.061Z,73.67
2023-09-06T22:33:58.167Z,73.64
2023-09-06T22:36:26.462Z,73.86
2023-09-06T22:38:54.616Z,73.85
2023-09-06T22:41:23.186Z,73.91
2023-09-06T22:43:51.404Z,74.00
2023-09-06T22:46:20.040Z,73.94
2023-09-06T22:48:53.765Z,74.03
2023-09-06T22:51:23.139Z,74.19
2023-09-06T22:53:51.628Z,74.26
2023-09-06T22:56:19.819Z,74.29
2023-09-06T22:58:48.008Z,74.30
2023-09-06T23:01:16.429Z,74.36
2023-09-06T23:03:45.161Z,74.47
2023-09-06T23:06:16.110Z,74.64
2023-09-06T23:08:44.336Z,74.59
2023-09-06T23:11:12.706Z,74.56
2023-09-06T23:13:40.955Z,74.63
2023-09-06T23:16:10.377Z,74.72
2023-09-06T23:18:44.690Z,74.75
2023-09-06T23:21:13.382Z,74.75
2023-09-06T23:23:43.342Z,74.73
2023-09-06T23:26:14.033Z,74.89
2023-09-06T23:28:44.888Z,74.88
2023-09-06T23:31:17.165Z,74.82
2023-09-06T23:33:50.414Z,75.09
2023-09-06T23:36:19.563Z,75.41
2023-09-06T23:38:49.569Z,75.56
2023-09-06T23:41:18.568Z,75.72
2023-09-06T23:43:48.393Z,75.90
2023-09-06T23:46:18.286Z,76.09
2023-09-06T23:48:46.533Z,76.06
2023-09-06T23:51:13.866Z,76.14
2023-09-06T23:53:42.049Z,76.18
2023-09-06T23:56:11.373Z,76.33
2023-09-06T23:58:39.606Z,76.44
